Time;durP1;ratioP1;P1;durP2;ratioP2;P2;SDS_P1;SDS_P2;PMS_P1;PMS_P2;Temp;Humidity;BMP_temperature;BMP_pressure;BME280_temperature;BME280_humidity;BME280_pressure;Samples;Min_cycle;Max_cycle;Signal;HPM_P1;HPM_P2
2022/05/25 00:00:06;;;;;;;;;;;;;;;;;;5010991;28;782;-64
2022/05/25 00:02:31;;;;;;;;;;;;;;;;;;5011602;28;837;-64
2022/05/25 00:04:56;;;;;;;;;;;;;;;;;;5011023;28;739;-64
2022/05/25 00:07:22;;;;;;;;;;;;;;;;;;5011105;28;1902;-64
2022/05/25 00:09:49;;;;;;;;;;;;;;;;;;5011177;28;873;-64
2022/05/25 00:12:15;;;;;;;;;;;;;;;;;;5011519;28;920;-64
2022/05/25 00:14:40;;;;;;;;;;;;;;;;;;5012036;28;900;-64
2022/05/25 00:17:06;;;;;;;;;;;;;;;;;;4993305;28;913;-64
2022/05/25 00:22:16;;;;;;;;;;;;;;;;;;5011142;28;1205;-64
2022/05/25 00:24:41;;;;;;;;;;;;;;;;;;5009567;28;1398;-64
2022/05/25 00:27:06;;;;;;;;;;;;;;;;;;5009345;28;1906;-64
2022/05/25 00:29:32;;;;;;;;;;;;;;;;;;5013444;28;866;-64
2022/05/25 00:31:57;;;;;;;;;;;;;;;;;;4995925;28;1085;-64
2022/05/25 00:34:22;;;;;;;;;;;;;;;;;;5013286;28;878;-64
2022/05/25 00:36:48;;;;;;;;;;;;;;;;;;5015059;28;901;-65
2022/05/25 00:39:13;;;;;;;;;;;;;;;;;;5014536;28;983;-64
2022/05/25 00:41:38;;;;;;;;;;;;;;;;;;5015051;28;1236;-64
2022/05/25 00:44:04;;;;;;;;;;;;;;;;;;4997300;28;849;-64
2022/05/25 00:46:32;;;;;;;;;;;;;;;;;;5014505;28;1910;-65
2022/05/25 00:49:03;;;;;;;;;;;;;;;;;;5014344;28;809;-65
2022/05/25 00:51:30;;;;;;;;;;;;;;;;;;5014078;28;817;-65
2022/05/25 00:54:04;;;;;;;;;;;;;;;;;;5014189;28;1341;-65
2022/05/25 00:56:31;;;;;;;;;;;;;;;;;;5013482;28;1410;-65
2022/05/25 00:59:06;;;;;;;;;;;;;;;;;;5013959;28;864;-65
2022/05/25 01:01:32;;;;;;;;;;;;;;;;;;5014249;28;904;-65
2022/05/25 01:03:57;;;;;;;;;;;;;;;;;;5014336;28;877;-64
2022/05/25 01:06:43;;;;;;;;;;;;;;;;;;4980928;28;1911;-65
2022/05/25 01:09:17;;;;;;;;;;;;;;;;;;5014945;28;809;-64
2022/05/25 01:11:50;;;;;;;;;;;;;;;;;;5015884;28;833;-63
2022/05/25 01:14:34;;;;;;;;;;;;;;;;;;5015616;28;901;-65
2022/05/25 01:17:09;;;;;;;;;;;;;;;;;;5015450;28;901;-64
2022/05/25 01:19:40;;;;;;;;;;;;;;;;;;5015734;28;829;-65
2022/05/25 01:22:05;;;;;;;;;;;;;;;;;;5015343;28;838;-64
2022/05/25 01:24:30;;;;;;;;;;;;;;;;;;5015336;28;1011;-63
2022/05/25 01:27:12;;;;;;;;;;;;;;;;;;5014990;28;1891;-63
2022/05/25 01:29:45;;;;;;;;;;;;;;;;;;5015819;28;801;-64
2022/05/25 01:32:13;;;;;;;;;;;;;;;;;;5015170;28;838;-63
2022/05/25 01:34:43;;;;;;;;;;;;;;;;;;5014125;28;983;-63
2022/05/25 01:37:34;;;;;;;;;;;;;;;;;;5013988;28;991;-64
2022/05/25 01:40:02;;;;;;;;;;;;;;;;;;5013319;28;838;-63
2022/05/25 01:42:31;;;;;;;;;;;;;;;;;;5013281;28;1227;-64
2022/05/25 01:44:59;;;;;;;;;;;;;;;;;;5012967;28;833;-63
2022/05/25 01:47:26;;;;;;;;;;;;;;;;;;5012550;28;1918;-63
2022/05/25 01:49:54;;;;;;;;;;;;;;;;;;5013009;28;913;-64
2022/05/25 01:52:23;;;;;;;;;;;;;;;;;;5012830;28;854;-63
2022/05/25 01:54:54;;;;;;;;;;;;;;;;;;5013153;28;912;-63
2022/05/25 01:57:22;;;;;;;;;;;;;;;;;;5013091;28;845;-63
2022/05/25 01:59:47;;;;;;;;;;;;;;;;;;4995696;28;2141;-64
2022/05/25 02:05:00;;;;;;;;;;;;;;;;;;4994942;28;1011;-64
2022/05/25 02:07:35;;;;;;;;;;;;;;;;;;5010492;28;1898;-64
2022/05/25 02:10:07;;;;;;;;;;;;;;;;;;5013672;28;1145;-64
2022/05/25 02:12:59;;;;;;;;;;;;;;;;;;5013511;28;845;-64
2022/05/25 02:15:34;;;;;;;;;;;;;;;;;;5010072;28;1009;-63
2022/05/25 02:18:17;;;;;;;;;;;;;;;;;;5012688;28;1040;-64
2022/05/25 02:20:48;;;;;;;;;;;;;;;;;;5013430;28;810;-64
2022/05/25 02:23:19;;;;;;;;;;;;;;;;;;5013292;28;891;-63
2022/05/25 02:25:51;;;;;;;;;;;;;;;;;;5013080;28;1964;-63
2022/05/25 02:28:20;;;;;;;;;;;;;;;;;;5012746;28;1110;-64
2022/05/25 02:30:48;;;;;;;;;;;;;;;;;;5012800;28;829;-63
2022/05/25 02:33:32;;;;;;;;;;;;;;;;;;5013027;28;837;-64
2022/05/25 02:35:58;;;;;;;;;;;;;;;;;;5012751;28;880;-64
2022/05/25 02:38:24;;;;;;;;;;;;;;;;;;5012653;28;911;-72
2022/05/25 02:40:50;;;;;;;;;;;;;;;;;;5012501;28;1245;-72
2022/05/25 02:43:15;;;;;;;;;;;;;;;;;;5012339;28;940;-72
2022/05/25 02:45:41;;;;;;;;;;;;;;;;;;5012421;28;1906;-72
2022/05/25 02:48:07;;;;;;;;;;;;;;;;;;5012585;28;964;-72
2022/05/25 02:50:32;;;;;;;;;;;;;;;;;;5012211;28;943;-72
2022/05/25 02:52:57;;;;;;;;;;;;;;;;;;5012079;28;913;-71
2022/05/25 02:55:23;;;;;;;;;;;;;;;;;;5012433;28;898;-72
2022/05/25 02:57:48;;;;;;;;;;;;;;;;;;5012887;28;912;-64
2022/05/25 03:00:14;;;;;;;;;;;;;;;;;;5012442;28;817;-64
2022/05/25 03:02:39;;;;;;;;;;;;;;;;;;5013276;28;837;-64
2022/05/25 03:05:06;;;;;;;;;;;;;;;;;;5012083;28;845;-64
2022/05/25 03:07:31;;;;;;;;;;;;;;;;;;5012164;28;1902;-64
2022/05/25 03:09:56;;;;;;;;;;;;;;;;;;5011982;28;889;-64
2022/05/25 03:12:22;;;;;;;;;;;;;;;;;;5012085;28;948;-64
2022/05/25 03:14:47;;;;;;;;;;;;;;;;;;4994596;28;837;-63
2022/05/25 03:17:14;;;;;;;;;;;;;;;;;;5012311;28;961;-64
2022/05/25 03:19:48;;;;;;;;;;;;;;;;;;5011927;28;864;-63
2022/05/25 03:22:13;;;;;;;;;;;;;;;;;;5011807;28;881;-63
2022/05/25 03:24:38;;;;;;;;;;;;;;;;;;4994541;28;1016;-72
2022/05/25 03:27:04;;;;;;;;;;;;;;;;;;5011909;28;2044;-71
2022/05/25 03:29:30;;;;;;;;;;;;;;;;;;5012124;28;905;-71
2022/05/25 03:31:56;;;;;;;;;;;;;;;;;;4994582;28;946;-72
2022/05/25 03:34:22;;;;;;;;;;;;;;;;;;5012152;28;739;-64
2022/05/25 03:36:48;;;;;;;;;;;;;;;;;;5011925;28;840;-63
2022/05/25 03:39:13;;;;;;;;;;;;;;;;;;5012151;28;801;-63
2022/05/25 03:41:39;;;;;;;;;;;;;;;;;;4988234;28;1210;-64
2022/05/25 03:44:04;;;;;;;;;;;;;;;;;;4991903;28;903;-64
2022/05/25 03:46:29;;;;;;;;;;;;;;;;;;4992022;28;1910;-63
2022/05/25 03:48:54;;;;;;;;;;;;;;;;;;4992437;28;865;-64
2022/05/25 03:51:20;;;;;;;;;;;;;;;;;;4992784;28;802;-64
2022/05/25 03:53:46;;;;;;;;;;;;;;;;;;4992586;28;846;-64
2022/05/25 03:56:11;;;;;;;;;;;;;;;;;;4992548;28;877;-65
2022/05/25 03:58:37;;;;;;;;;;;;;;;;;;4988809;28;1185;-65
2022/05/25 04:01:02;;;;;;;;;;;;;;;;;;4992114;28;874;-65
2022/05/25 04:03:27;;;;;;;;;;;;;;;;;;4992384;28;999;-65
2022/05/25 04:05:53;;;;;;;;;;;;;;;;;;4981836;28;1899;-65
2022/05/25 04:08:18;;;;;;;;;;;;;;;;;;4980945;28;1178;-64
2022/05/25 04:10:44;;;;;;;;;;;;;;;;;;4992846;28;1213;-65
2022/05/25 04:13:09;;;;;;;;;;;;;;;;;;4987385;28;1221;-65
2022/05/25 04:15:34;;;;;;;;;;;;;;;;;;4985133;28;1079;-65
2022/05/25 04:18:00;;;;;;;;;;;;;;;;;;4995628;28;889;-64
2022/05/25 04:20:26;;;;;;;;;;;;;;;;;;4995726;28;806;-65
2022/05/25 04:22:51;;;;;;;;;;;;;;;;;;4994869;28;928;-64
2022/05/25 04:25:18;;;;;;;;;;;;;;;;;;4991956;28;1371;-65
2022/05/25 04:27:43;;;;;;;;;;;;;;;;;;4994794;28;1998;-64
2022/05/25 04:30:10;;;;;;;;;;;;;;;;;;4994793;28;1956;-64
2022/05/25 04:32:35;;;;;;;;;;;;;;;;;;4994911;28;1088;-64
2022/05/25 04:35:00;;;;;;;;;;;;;;;;;;4994912;28;830;-64
2022/05/25 04:40:11;;;;;;;;;;;;;;;;;;4995048;28;698;-64
2022/05/25 04:42:37;;;;;;;;;;;;;;;;;;5012076;28;1196;-65
2022/05/25 04:45:03;;;;;;;;;;;;;;;;;;5014430;28;825;-64
2022/05/25 04:47:29;;;;;;;;;;;;;;;;;;5014122;28;1984;-64
2022/05/25 04:49:54;;;;;;;;;;;;;;;;;;5014371;28;853;-64
2022/05/25 04:52:19;;;;;;;;;;;;;;;;;;5014222;28;849;-64
2022/05/25 04:54:45;;;;;;;;;;;;;;;;;;5014012;28;900;-64
2022/05/25 04:57:19;;;;;;;;;;;;;;;;;;5014349;28;909;-65
2022/05/25 04:59:44;;;;;;;;;;;;;;;;;;4996493;28;968;-64
2022/05/25 05:02:10;;;;;;;;;;;;;;;;;;5014464;28;805;-64
2022/05/25 05:04:37;;;;;;;;;;;;;;;;;;5014570;28;956;-65
2022/05/25 05:07:03;;;;;;;;;;;;;;;;;;5013495;28;1897;-64
2022/05/25 05:09:31;;;;;;;;;;;;;;;;;;5014113;28;909;-65
2022/05/25 05:11:57;;;;;;;;;;;;;;;;;;5014022;28;905;-64
2022/05/25 05:14:22;;;;;;;;;;;;;;;;;;5014240;28;889;-65
2022/05/25 05:16:48;;;;;;;;;;;;;;;;;;4995836;28;932;-65
2022/05/25 05:19:14;;;;;;;;;;;;;;;;;;5013482;28;866;-64
2022/05/25 05:21:39;;;;;;;;;;;;;;;;;;5012613;28;933;-65
2022/05/25 05:24:04;;;;;;;;;;;;;;;;;;5013833;28;911;-65
2022/05/25 05:26:30;;;;;;;;;;;;;;;;;;5013784;28;1965;-65
2022/05/25 05:28:55;;;;;;;;;;;;;;;;;;5013902;28;873;-64
2022/05/25 05:31:20;;;;;;;;;;;;;;;;;;5015606;28;805;-65
2022/05/25 05:33:46;;;;;;;;;;;;;;;;;;5014107;28;905;-64
2022/05/25 05:36:16;;;;;;;;;;;;;;;;;;5013532;28;976;-64
2022/05/25 05:38:46;;;;;;;;;;;;;;;;;;5013329;28;929;-64
2022/05/25 05:41:12;;;;;;;;;;;;;;;;;;5013388;28;1282;-65
2022/05/25 05:43:38;;;;;;;;;;;;;;;;;;4996186;28;791;-64
2022/05/25 05:46:03;;;;;;;;;;;;;;;;;;5012937;28;1971;-64
2022/05/25 05:48:29;;;;;;;;;;;;;;;;;;4996326;28;933;-64
2022/05/25 05:50:55;;;;;;;;;;;;;;;;;;5013763;28;907;-64
2022/05/25 05:53:20;;;;;;;;;;;;;;;;;;5013913;28;1234;-65
2022/05/25 05:55:46;;;;;;;;;;;;;;;;;;5013428;28;932;-64
2022/05/25 05:58:12;;;;;;;;;;;;;;;;;;5012838;28;827;-64
2022/05/25 06:00:37;;;;;;;;;;;;;;;;;;5013678;28;1035;-65
2022/05/25 06:03:03;;;;;;;;;;;;;;;;;;5013025;28;786;-64
2022/05/25 06:05:28;;;;;;;;;;;;;;;;;;5013706;28;1914;-65
2022/05/25 06:07:53;;;;;;;;;;;;;;;;;;5013152;28;1071;-65
2022/05/25 06:10:18;;;;;;;;;;;;;;;;;;5013002;28;767;-65
2022/05/25 06:12:46;;;;;;;;;;;;;;;;;;5013465;28;917;-64
2022/05/25 06:20:39;;;;;;;;;;;;;;;;;;5014036;28;649;-65
2022/05/25 06:23:04;;;;;;;;;;;;;;;;;;5013004;28;995;-64
2022/05/25 06:25:29;;;;;;;;;;;;;;;;;;5013251;28;1898;-64
2022/05/25 06:27:55;;;;;;;;;;;;;;;;;;5012992;28;856;-64
2022/05/25 06:30:20;;;;;;;;;;;;;;;;;;4995383;28;853;-64
2022/05/25 06:32:45;;;;;;;;;;;;;;;;;;5012367;28;762;-64
2022/05/25 06:35:12;;;;;;;;;;;;;;;;;;5012633;28;895;-64
2022/05/25 06:37:37;;;;;;;;;;;;;;;;;;5013002;28;869;-64
2022/05/25 06:40:03;;;;;;;;;;;;;;;;;;5012859;28;901;-64
2022/05/25 06:42:28;;;;;;;;;;;;;;;;;;5012773;28;1262;-64
2022/05/25 06:44:53;;;;;;;;;;;;;;;;;;5012600;28;838;-64
2022/05/25 06:47:18;;;;;;;;;;;;;;;;;;5012356;28;1906;-64
2022/05/25 06:49:44;;;;;;;;;;;;;;;;;;5013072;28;1043;-64
2022/05/25 06:52:10;;;;;;;;;;;;;;;;;;5012483;28;881;-64
2022/05/25 06:54:35;;;;;;;;;;;;;;;;;;5013152;28;967;-64
2022/05/25 06:57:00;;;;;;;;;;;;;;;;;;5012259;28;1039;-64
2022/05/25 06:59:26;;;;;;;;;;;;;;;;;;5012981;28;1051;-64
2022/05/25 07:01:51;;;;;;;;;;;;;;;;;;5012735;28;904;-64
2022/05/25 07:04:16;;;;;;;;;;;;;;;;;;5012934;28;857;-64
2022/05/25 07:06:42;;;;;;;;;;;;;;;;;;5013555;28;1977;-64
2022/05/25 07:09:07;;;;;;;;;;;;;;;;;;5012641;28;884;-64
2022/05/25 07:11:33;;;;;;;;;;;;;;;;;;5012948;28;1004;-64
2022/05/25 07:13:59;;;;;;;;;;;;;;;;;;5012727;28;849;-64
2022/05/25 07:16:25;;;;;;;;;;;;;;;;;;5013032;28;865;-64
2022/05/25 07:18:50;;;;;;;;;;;;;;;;;;5012031;28;865;-64
2022/05/25 07:21:17;;;;;;;;;;;;;;;;;;5011950;28;827;-64
2022/05/25 07:23:43;;;;;;;;;;;;;;;;;;5011976;28;869;-64
2022/05/25 07:26:10;;;;;;;;;;;;;;;;;;4994491;28;1957;-64
2022/05/25 07:28:36;;;;;;;;;;;;;;;;;;5012176;28;1063;-64
2022/05/25 07:31:05;;;;;;;;;;;;;;;;;;4994264;28;2204;-64
2022/05/25 07:33:30;;;;;;;;;;;;;;;;;;5014697;28;976;-64
2022/05/25 07:35:56;;;;;;;;;;;;;;;;;;5013860;28;857;-64
2022/05/25 07:38:22;;;;;;;;;;;;;;;;;;5015150;28;892;-63
2022/05/25 07:40:47;;;;;;;;;;;;;;;;;;4997024;28;1436;-64
2022/05/25 07:43:15;;;;;;;;;;;;;;;;;;5014779;28;933;-64
2022/05/25 07:45:40;;;;;;;;;;;;;;;;;;5014505;28;1976;-63
2022/05/25 07:48:05;;;;;;;;;;;;;;;;;;5014194;28;822;-64
2022/05/25 07:50:31;;;;;;;;;;;;;;;;;;5014962;28;739;-64
2022/05/25 07:52:57;;;;;;;;;;;;;;;;;;5014447;28;916;-64
2022/05/25 07:55:23;;;;;;;;;;;;;;;;;;5014761;28;857;-64
2022/05/25 07:57:48;;;;;;;;;;;;;;;;;;5014302;28;936;-65
2022/05/25 08:00:14;;;;;;;;;;;;;;;;;;5013543;28;893;-64
2022/05/25 08:08:24;;;;;;;;;;;;;;;;;;5011648;28;683;-64
2022/05/25 08:10:54;;;;;;;;;;;;;;;;;;5011664;28;864;-64
2022/05/25 08:13:21;;;;;;;;;;;;;;;;;;5011118;28;868;-64
2022/05/25 08:15:47;;;;;;;;;;;;;;;;;;5011456;28;875;-64
2022/05/25 08:18:13;;;;;;;;;;;;;;;;;;5010981;28;1760;-64
2022/05/25 08:20:38;;;;;;;;;;;;;;;;;;5011609;28;805;-65
2022/05/25 08:23:05;;;;;;;;;;;;;;;;;;5011054;28;941;-65
2022/05/25 08:25:31;;;;;;;;;;;;;;;;;;5011172;28;1015;-64
2022/05/25 08:27:56;;;;;;;;;;;;;;;;;;5010771;28;1956;-65
2022/05/25 08:30:21;;;;;;;;;;;;;;;;;;5010955;28;1119;-64
2022/05/25 08:32:47;;;;;;;;;;;;;;;;;;5011745;28;976;-65
2022/05/25 08:35:13;;;;;;;;;;;;;;;;;;5010817;28;1072;-64
2022/05/25 08:37:38;;;;;;;;;;;;;;;;;;5011887;28;912;-64
2022/05/25 08:40:04;;;;;;;;;;;;;;;;;;5011226;28;873;-64
2022/05/25 08:42:32;;;;;;;;;;;;;;;;;;5011050;28;1220;-64
2022/05/25 08:44:58;;;;;;;;;;;;;;;;;;5011234;28;857;-64
2022/05/25 08:47:24;;;;;;;;;;;;;;;;;;5010831;28;1922;-65
2022/05/25 08:49:51;;;;;;;;;;;;;;;;;;5011625;28;841;-64
2022/05/25 08:52:20;;;;;;;;;;;;;;;;;;5012159;28;908;-65
2022/05/25 08:54:45;;;;;;;;;;;;;;;;;;5011976;28;894;-64
2022/05/25 08:57:17;;;;;;;;;;;;;;;;;;5014081;28;889;-65
2022/05/25 08:59:49;;;;;;;;;;;;;;;;;;5014786;28;896;-64
2022/05/25 09:02:33;;;;;;;;;;;;;;;;;;5014008;28;1059;-64
2022/05/25 09:05:02;;;;;;;;;;;;;;;;;;5014413;28;988;-65
2022/05/25 09:07:47;;;;;;;;;;;;;;;;;;4996628;28;1961;-65
2022/05/25 09:10:13;;;;;;;;;;;;;;;;;;5014074;28;841;-65
2022/05/25 09:12:42;;;;;;;;;;;;;;;;;;5014516;28;988;-66
2022/05/25 09:15:10;;;;;;;;;;;;;;;;;;5014173;28;896;-63
2022/05/25 09:17:41;;;;;;;;;;;;;;;;;;4997305;28;1496;-65
2022/05/25 09:20:12;;;;;;;;;;;;;;;;;;4997182;28;1345;-67
2022/05/25 09:22:38;;;;;;;;;;;;;;;;;;5015299;28;810;-66
2022/05/25 09:25:04;;;;;;;;;;;;;;;;;;5014765;28;1014;-66
2022/05/25 09:27:33;;;;;;;;;;;;;;;;;;5013954;28;1966;-66
2022/05/25 09:30:00;;;;;;;;;;;;;;;;;;5014308;28;1581;-66
2022/05/25 09:32:32;;;;;;;;;;;;;;;;;;4997483;28;806;-64
2022/05/25 09:34:58;;;;;;;;;;;;;;;;;;5015010;28;863;-64
2022/05/25 09:37:32;;;;;;;;;;;;;;;;;;5015131;28;807;-66
2022/05/25 09:40:01;;;;;;;;;;;;;;;;;;5015639;28;829;-65
2022/05/25 09:42:32;;;;;;;;;;;;;;;;;;5014462;28;1184;-65
2022/05/25 09:44:58;;;;;;;;;;;;;;;;;;5015042;28;854;-67
2022/05/25 09:47:27;;;;;;;;;;;;;;;;;;5015156;28;1891;-66
2022/05/25 09:49:53;;;;;;;;;;;;;;;;;;4997248;28;1228;-66
2022/05/25 09:52:38;;;;;;;;;;;;;;;;;;5015201;28;858;-67
2022/05/25 09:55:10;;;;;;;;;;;;;;;;;;5015068;28;1000;-65
2022/05/25 09:57:42;;;;;;;;;;;;;;;;;;5015206;28;908;-66
2022/05/25 10:00:14;;;;;;;;;;;;;;;;;;5014210;28;1054;-65
2022/05/25 10:02:47;;;;;;;;;;;;;;;;;;5014932;28;987;-66
2022/05/25 10:05:19;;;;;;;;;;;;;;;;;;5014982;28;817;-65
2022/05/25 10:08:03;;;;;;;;;;;;;;;;;;5011132;28;1961;-66
2022/05/25 10:10:33;;;;;;;;;;;;;;;;;;5013299;28;775;-66
2022/05/25 10:13:00;;;;;;;;;;;;;;;;;;5013307;28;836;-66
2022/05/25 10:15:33;;;;;;;;;;;;;;;;;;5013662;28;838;-65
2022/05/25 10:17:59;;;;;;;;;;;;;;;;;;4995512;28;1187;-65
2022/05/25 10:20:24;;;;;;;;;;;;;;;;;;5013263;28;822;-66
2022/05/25 10:23:10;;;;;;;;;;;;;;;;;;5013597;28;1040;-66
2022/05/25 10:25:41;;;;;;;;;;;;;;;;;;5012801;28;1040;-65
2022/05/25 10:28:26;;;;;;;;;;;;;;;;;;5013169;28;821;-65
2022/05/25 10:39:16;;;;;;;;;;;;;;;;;;5013184;28;655;-65
2022/05/25 10:41:43;;;;;;;;;;;;;;;;;;5011783;28;1071;-64
2022/05/25 10:44:14;;;;;;;;;;;;;;;;;;5012418;28;893;-65
2022/05/25 10:46:42;;;;;;;;;;;;;;;;;;5012708;28;1966;-65
2022/05/25 10:49:22;;;;;;;;;;;;;;;;;;5012356;28;988;-65
2022/05/25 10:51:52;;;;;;;;;;;;;;;;;;5012231;28;865;-65
2022/05/25 10:57:04;;;;;;;;;;;;;;;;;;5012126;28;679;-65
2022/05/25 10:59:32;;;;;;;;;;;;;;;;;;5012224;28;916;-65
2022/05/25 11:02:26;;;;;;;;;;;;;;;;;;5012493;28;952;-65
2022/05/25 11:04:54;;;;;;;;;;;;;;;;;;4958533;28;1092;-65
2022/05/25 11:07:32;;;;;;;;;;;;;;;;;;5012038;28;1949;-65
2022/05/25 11:10:16;;;;;;;;;;;;;;;;;;5012308;28;794;-65
2022/05/25 11:12:55;;;;;;;;;;;;;;;;;;5012440;28;853;-66
2022/05/25 11:15:41;;;;;;;;;;;;;;;;;;5011669;28;912;-65
2022/05/25 11:18:13;;;;;;;;;;;;;;;;;;5011835;28;972;-65
2022/05/25 11:20:58;;;;;;;;;;;;;;;;;;5011257;28;830;-65
2022/05/25 11:23:42;;;;;;;;;;;;;;;;;;4994659;28;996;-65
2022/05/25 11:26:08;;;;;;;;;;;;;;;;;;5012692;28;1990;-65
2022/05/25 11:28:52;;;;;;;;;;;;;;;;;;5012043;28;872;-65
2022/05/25 11:31:25;;;;;;;;;;;;;;;;;;5012104;28;1079;-65
2022/05/25 11:34:08;;;;;;;;;;;;;;;;;;5011934;28;908;-65
2022/05/25 11:36:49;;;;;;;;;;;;;;;;;;4994578;28;1705;-65
2022/05/25 11:39:14;;;;;;;;;;;;;;;;;;5011843;28;901;-65
2022/05/25 11:42:01;;;;;;;;;;;;;;;;;;5011798;28;1067;-66
2022/05/25 11:44:27;;;;;;;;;;;;;;;;;;5011944;28;826;-65
2022/05/25 11:46:56;;;;;;;;;;;;;;;;;;5011441;28;1910;-65
2022/05/25 11:49:46;;;;;;;;;;;;;;;;;;5011661;28;940;-66
2022/05/25 11:52:11;;;;;;;;;;;;;;;;;;5011798;28;829;-65
2022/05/25 11:54:39;;;;;;;;;;;;;;;;;;5011511;28;853;-66
2022/05/25 11:57:09;;;;;;;;;;;;;;;;;;5011117;28;837;-66
2022/05/25 11:59:49;;;;;;;;;;;;;;;;;;5012010;28;790;-65
2022/05/25 12:02:27;;;;;;;;;;;;;;;;;;5010969;28;863;-66
2022/05/25 12:05:04;;;;;;;;;;;;;;;;;;5011391;28;837;-65
2022/05/25 12:07:35;;;;;;;;;;;;;;;;;;4993555;28;1964;-66
2022/05/25 12:10:00;;;;;;;;;;;;;;;;;;5011903;28;889;-65
2022/05/25 12:12:28;;;;;;;;;;;;;;;;;;5011535;28;867;-66
2022/05/25 12:14:54;;;;;;;;;;;;;;;;;;5011718;28;897;-65
2022/05/25 12:17:19;;;;;;;;;;;;;;;;;;5010910;28;860;-65
2022/05/25 12:19:45;;;;;;;;;;;;;;;;;;5011682;28;1247;-65
2022/05/25 12:22:14;;;;;;;;;;;;;;;;;;5010721;28;1322;-66
2022/05/25 12:24:41;;;;;;;;;;;;;;;;;;5011121;28;983;-66
2022/05/25 12:27:10;;;;;;;;;;;;;;;;;;5011419;28;1970;-65
2022/05/25 12:29:49;;;;;;;;;;;;;;;;;;5011382;28;931;-65
2022/05/25 12:32:15;;;;;;;;;;;;;;;;;;5014603;28;813;-65
2022/05/25 12:34:43;;;;;;;;;;;;;;;;;;5014921;28;900;-65
2022/05/25 12:37:09;;;;;;;;;;;;;;;;;;4996867;28;714;-66
2022/05/25 12:39:46;;;;;;;;;;;;;;;;;;5015164;28;842;-66
2022/05/25 12:42:24;;;;;;;;;;;;;;;;;;5014533;28;1067;-66
2022/05/25 12:50:35;;;;;;;;;;;;;;;;;;5014614;28;891;-65
2022/05/25 12:53:19;;;;;;;;;;;;;;;;;;5014423;28;1004;-66
2022/05/25 12:55:53;;;;;;;;;;;;;;;;;;5014272;28;849;-65
2022/05/25 12:58:30;;;;;;;;;;;;;;;;;;5014430;28;829;-65
2022/05/25 13:01:00;;;;;;;;;;;;;;;;;;4996997;28;782;-65
2022/05/25 13:03:39;;;;;;;;;;;;;;;;;;5014600;28;909;-65
2022/05/25 13:06:05;;;;;;;;;;;;;;;;;;5014703;28;1886;-64
2022/05/25 13:08:48;;;;;;;;;;;;;;;;;;5014826;28;933;-65
2022/05/25 13:11:32;;;;;;;;;;;;;;;;;;5013870;28;1007;-65
2022/05/25 13:13:59;;;;;;;;;;;;;;;;;;5014747;28;897;-65
2022/05/25 13:16:40;;;;;;;;;;;;;;;;;;5014565;28;855;-65
2022/05/25 13:19:14;;;;;;;;;;;;;;;;;;5014401;28;897;-64
2022/05/25 13:21:41;;;;;;;;;;;;;;;;;;5014222;28;818;-65
2022/05/25 13:24:30;;;;;;;;;;;;;;;;;;4995850;28;1197;-65
2022/05/25 13:27:09;;;;;;;;;;;;;;;;;;4985446;28;1954;-65
2022/05/25 13:29:48;;;;;;;;;;;;;;;;;;5013903;28;885;-65
2022/05/25 13:32:28;;;;;;;;;;;;;;;;;;5013956;28;987;-65
2022/05/25 13:34:54;;;;;;;;;;;;;;;;;;5014383;28;837;-65
2022/05/25 13:37:19;;;;;;;;;;;;;;;;;;5013922;28;810;-65
2022/05/25 13:39:45;;;;;;;;;;;;;;;;;;5014078;28;999;-65
2022/05/25 13:42:12;;;;;;;;;;;;;;;;;;5013210;28;1068;-65
2022/05/25 13:44:43;;;;;;;;;;;;;;;;;;5014145;28;1241;-65
2022/05/25 13:47:15;;;;;;;;;;;;;;;;;;5015488;28;1910;-64
2022/05/25 13:49:46;;;;;;;;;;;;;;;;;;5000215;28;2183;-64
2022/05/25 13:52:16;;;;;;;;;;;;;;;;;;5016210;28;954;-65
2022/05/25 13:54:43;;;;;;;;;;;;;;;;;;5016543;28;762;-65
2022/05/25 13:57:11;;;;;;;;;;;;;;;;;;5016791;28;987;-64
2022/05/25 13:59:37;;;;;;;;;;;;;;;;;;5017013;28;837;-65
2022/05/25 14:02:17;;;;;;;;;;;;;;;;;;5015539;28;1463;-65
2022/05/25 14:04:44;;;;;;;;;;;;;;;;;;5016353;28;980;-64
2022/05/25 14:07:09;;;;;;;;;;;;;;;;;;4998256;28;1956;-64
2022/05/25 14:12:19;;;;;;;;;;;;;;;;;;5016032;28;786;-63
2022/05/25 14:14:51;;;;;;;;;;;;;;;;;;5015603;28;896;-64
2022/05/25 14:17:24;;;;;;;;;;;;;;;;;;5014097;28;845;-65
2022/05/25 14:19:58;;;;;;;;;;;;;;;;;;5012937;28;860;-64
2022/05/25 14:22:25;;;;;;;;;;;;;;;;;;5013132;28;850;-64
2022/05/25 14:24:52;;;;;;;;;;;;;;;;;;5013171;28;964;-65
2022/05/25 14:27:37;;;;;;;;;;;;;;;;;;5012906;28;1867;-64
2022/05/25 14:30:04;;;;;;;;;;;;;;;;;;5012924;28;1019;-65
2022/05/25 14:32:31;;;;;;;;;;;;;;;;;;5013411;28;900;-64
2022/05/25 14:35:00;;;;;;;;;;;;;;;;;;5013130;28;841;-65
2022/05/25 14:37:33;;;;;;;;;;;;;;;;;;5013149;28;929;-65
2022/05/25 14:40:01;;;;;;;;;;;;;;;;;;5013409;28;829;-64
2022/05/25 14:42:28;;;;;;;;;;;;;;;;;;5012403;28;1284;-64
2022/05/25 14:45:05;;;;;;;;;;;;;;;;;;5012303;28;861;-64
2022/05/25 14:47:33;;;;;;;;;;;;;;;;;;4994378;28;1907;-65
2022/05/25 14:50:04;;;;;;;;;;;;;;;;;;5012709;28;927;-64
2022/05/25 14:52:30;;;;;;;;;;;;;;;;;;5012855;28;929;-64
2022/05/25 14:55:22;;;;;;;;;;;;;;;;;;5012387;28;920;-65
2022/05/25 14:58:00;;;;;;;;;;;;;;;;;;5009418;28;1128;-64
2022/05/25 15:00:26;;;;;;;;;;;;;;;;;;5012680;28;984;-65
2022/05/25 15:02:57;;;;;;;;;;;;;;;;;;5012995;28;874;-64
2022/05/25 15:05:28;;;;;;;;;;;;;;;;;;5011944;28;854;-64
2022/05/25 15:07:55;;;;;;;;;;;;;;;;;;5012149;28;1952;-64
2022/05/25 15:10:21;;;;;;;;;;;;;;;;;;5011836;28;771;-64
2022/05/25 15:12:46;;;;;;;;;;;;;;;;;;5012350;28;873;-64
2022/05/25 15:18:29;;;;;;;;;;;;;;;;;;5011616;28;637;-66
2022/05/25 15:20:55;;;;;;;;;;;;;;;;;;5012285;28;1018;-65
2022/05/25 15:23:37;;;;;;;;;;;;;;;;;;5011723;28;1370;-65
2022/05/25 15:26:20;;;;;;;;;;;;;;;;;;5011426;28;1910;-64
2022/05/25 15:28:45;;;;;;;;;;;;;;;;;;5011750;28;846;-65
2022/05/25 15:31:13;;;;;;;;;;;;;;;;;;5011258;28;852;-65
2022/05/25 15:33:38;;;;;;;;;;;;;;;;;;5012049;28;983;-65
2022/05/25 15:36:20;;;;;;;;;;;;;;;;;;5011878;28;922;-65
2022/05/25 15:38:49;;;;;;;;;;;;;;;;;;5012457;28;790;-65
2022/05/25 15:41:15;;;;;;;;;;;;;;;;;;5011436;28;1092;-65
2022/05/25 15:43:40;;;;;;;;;;;;;;;;;;5009592;28;1467;-65
2022/05/25 15:46:07;;;;;;;;;;;;;;;;;;5006726;28;1903;-65
2022/05/25 15:48:32;;;;;;;;;;;;;;;;;;5009319;28;1259;-65
2022/05/25 15:50:58;;;;;;;;;;;;;;;;;;4991664;28;1220;-64
2022/05/25 15:53:24;;;;;;;;;;;;;;;;;;4993665;28;1172;-65
2022/05/25 15:55:50;;;;;;;;;;;;;;;;;;5010235;28;1166;-65
2022/05/25 15:58:16;;;;;;;;;;;;;;;;;;5010495;28;1157;-65
2022/05/25 16:00:43;;;;;;;;;;;;;;;;;;5012283;28;841;-70
2022/05/25 16:03:11;;;;;;;;;;;;;;;;;;5011546;28;891;-71
2022/05/25 16:05:37;;;;;;;;;;;;;;;;;;5013021;28;868;-71
2022/05/25 16:10:47;;;;;;;;;;;;;;;;;;5016148;28;710;-72
2022/05/25 16:13:13;;;;;;;;;;;;;;;;;;5015224;28;826;-72
2022/05/25 16:15:38;;;;;;;;;;;;;;;;;;5016771;28;813;-66
2022/05/25 16:18:03;;;;;;;;;;;;;;;;;;4997307;28;826;-65
2022/05/25 16:20:29;;;;;;;;;;;;;;;;;;5013966;28;857;-66
2022/05/25 16:22:54;;;;;;;;;;;;;;;;;;5015681;28;1017;-66
2022/05/25 16:25:22;;;;;;;;;;;;;;;;;;4997179;28;929;-66
2022/05/25 16:27:47;;;;;;;;;;;;;;;;;;4995815;28;1911;-66
2022/05/25 16:30:13;;;;;;;;;;;;;;;;;;5014696;28;810;-66
2022/05/25 16:32:38;;;;;;;;;;;;;;;;;;5015321;28;837;-66
2022/05/25 16:35:05;;;;;;;;;;;;;;;;;;5014375;28;818;-66
2022/05/25 16:37:30;;;;;;;;;;;;;;;;;;5014609;28;827;-66
2022/05/25 16:39:55;;;;;;;;;;;;;;;;;;5013654;28;786;-66
2022/05/25 16:42:21;;;;;;;;;;;;;;;;;;5013763;28;1079;-66
2022/05/25 16:44:46;;;;;;;;;;;;;;;;;;5014624;28;892;-66
2022/05/25 16:47:12;;;;;;;;;;;;;;;;;;4980155;28;1982;-66
2022/05/25 16:49:37;;;;;;;;;;;;;;;;;;4997470;28;909;-66
2022/05/25 16:52:03;;;;;;;;;;;;;;;;;;5014660;28;986;-66
2022/05/25 16:54:28;;;;;;;;;;;;;;;;;;5014193;28;900;-66
2022/05/25 16:56:57;;;;;;;;;;;;;;;;;;5014446;28;814;-66
2022/05/25 16:59:23;;;;;;;;;;;;;;;;;;4997009;28;937;-66
2022/05/25 17:01:48;;;;;;;;;;;;;;;;;;5014672;28;821;-66
2022/05/25 17:04:13;;;;;;;;;;;;;;;;;;5014642;28;841;-65
2022/05/25 17:06:39;;;;;;;;;;;;;;;;;;5014488;28;1906;-65
2022/05/25 17:09:04;;;;;;;;;;;;;;;;;;5014546;28;842;-65
2022/05/25 17:11:29;;;;;;;;;;;;;;;;;;4996441;28;937;-65
2022/05/25 17:13:55;;;;;;;;;;;;;;;;;;5014452;28;850;-65
2022/05/25 17:16:20;;;;;;;;;;;;;;;;;;5013872;28;771;-65
2022/05/25 17:21:31;;;;;;;;;;;;;;;;;;5014093;28;714;-65
2022/05/25 17:23:57;;;;;;;;;;;;;;;;;;5013997;28;971;-65
2022/05/25 17:26:22;;;;;;;;;;;;;;;;;;5013577;28;1906;-65
2022/05/25 17:28:47;;;;;;;;;;;;;;;;;;5014057;28;975;-65
2022/05/25 17:31:13;;;;;;;;;;;;;;;;;;5013021;28;888;-65
2022/05/25 17:33:38;;;;;;;;;;;;;;;;;;5013637;28;1027;-65
2022/05/25 17:41:47;;;;;;;;;;;;;;;;;;5013236;28;1274;-66
2022/05/25 17:44:13;;;;;;;;;;;;;;;;;;5012910;28;873;-65
2022/05/25 17:46:41;;;;;;;;;;;;;;;;;;5013181;28;1914;-66
2022/05/25 17:49:06;;;;;;;;;;;;;;;;;;5013956;28;904;-66
2022/05/25 17:51:32;;;;;;;;;;;;;;;;;;4995331;28;1055;-66
2022/05/25 17:53:57;;;;;;;;;;;;;;;;;;4995507;28;984;-66
2022/05/25 17:56:22;;;;;;;;;;;;;;;;;;5012645;28;628;-65
2022/05/25 17:58:48;;;;;;;;;;;;;;;;;;5013459;28;770;-65
2022/05/25 18:01:13;;;;;;;;;;;;;;;;;;5013414;28;1174;-66
2022/05/25 18:03:38;;;;;;;;;;;;;;;;;;4979773;28;1932;-66
2022/05/25 18:06:04;;;;;;;;;;;;;;;;;;5013080;28;1894;-65
2022/05/25 18:08:29;;;;;;;;;;;;;;;;;;5013170;28;901;-66
2022/05/25 18:10:55;;;;;;;;;;;;;;;;;;5013720;28;885;-66
2022/05/25 18:13:20;;;;;;;;;;;;;;;;;;5012521;28;920;-65
2022/05/25 18:15:46;;;;;;;;;;;;;;;;;;5013031;28;920;-66
2022/05/25 18:18:14;;;;;;;;;;;;;;;;;;5011531;28;1050;-65